createdAt,value
2019-02-26T00:00:46.940Z,5.97
2019-02-26T00:01:41.044Z,6.04
2019-02-26T00:02:41.035Z,6
2019-02-26T00:03:41.015Z,5.93
2019-02-26T00:04:41.702Z,5.9
2019-02-26T00:05:40.985Z,5.93
2019-02-26T00:06:42.385Z,5.93
2019-02-26T00:07:40.956Z,5.81
2019-02-26T00:08:40.696Z,5.81
2019-02-26T00:09:40.965Z,5.89
2019-02-26T00:10:43.717Z,5.78
2019-02-26T00:11:44.612Z,5.78
2019-02-26T00:12:40.890Z,5.82
2019-02-26T00:13:41.392Z,5.81
2019-02-26T00:14:42.997Z,5.76
2019-02-26T00:15:46.526Z,5.75
2019-02-26T00:16:48.738Z,5.72
2019-02-26T00:17:49.017Z,5.64
2019-02-26T00:18:42.602Z,5.64
2019-02-26T00:19:40.794Z,5.54
2019-02-26T00:20:43.837Z,5.65
2019-02-26T00:21:40.791Z,5.61
2019-02-26T00:22:43.623Z,5.56
2019-02-26T00:23:42.011Z,5.58
2019-02-26T00:24:46.707Z,5.57
2019-02-26T00:25:40.713Z,5.57
2019-02-26T00:26:45.189Z,5.51
2019-02-26T00:27:40.684Z,5.58
2019-02-26T00:28:45.662Z,5.45
2019-02-26T00:29:40.660Z,5.49
2019-02-26T00:30:44.917Z,5.48
2019-02-26T00:31:40.634Z,5.46
2019-02-26T00:32:42.987Z,5.57
2019-02-26T00:33:40.605Z,5.54
2019-02-26T00:34:43.569Z,5.4
2019-02-26T00:35:44.394Z,5.49
2019-02-26T00:36:41.259Z,5.56
2019-02-26T00:37:40.549Z,5.42
2019-02-26T00:38:44.700Z,5.4
2019-02-26T00:39:40.523Z,5.51
2019-02-26T00:40:45.086Z,5.53
2019-02-26T00:41:42.772Z,5.54
2019-02-26T00:42:40.860Z,5.56
2019-02-26T00:43:41.787Z,5.43
2019-02-26T00:44:42.147Z,5.43
2019-02-26T00:45:43.286Z,5.4
2019-02-26T00:46:43.751Z,5.46
2019-02-26T00:47:46.124Z,5.45
2019-02-26T00:48:45.148Z,5.49
2019-02-26T00:49:41.964Z,5.56
2019-02-26T00:50:42.297Z,5.39
2019-02-26T00:51:45.965Z,5.46
2019-02-26T00:52:43.813Z,5.38
2019-02-26T00:53:40.325Z,5.43
2019-02-26T00:54:41.407Z,5.43
2019-02-26T00:55:42.578Z,5.42
2019-02-26T00:56:43.531Z,5.36
2019-02-26T00:57:45.368Z,5.4
2019-02-26T00:58:48.259Z,5.43
2019-02-26T00:59:46.200Z,5.39
2019-02-26T01:00:40.330Z,5.39
2019-02-26T01:01:44.028Z,5.42
2019-02-26T01:02:40.198Z,5.35
2019-02-26T01:03:42.403Z,5.35
2019-02-26T01:04:43.804Z,5.36
2019-02-26T01:05:45.387Z,5.31
2019-02-26T01:06:40.142Z,5.38
2019-02-26T01:07:41.897Z,5.3
2019-02-26T01:08:47.059Z,5.24
2019-02-26T01:09:40.110Z,5.24
2019-02-26T01:10:45.849Z,5.27
2019-02-26T01:11:40.071Z,5.28
2019-02-26T01:12:44.551Z,5.25
2019-02-26T01:13:40.048Z,5.22
2019-02-26T01:14:44.183Z,5.17
2019-02-26T01:15:40.016Z,5.27
2019-02-26T01:16:45.847Z,5.17
2019-02-26T01:17:42.912Z,5.1
2019-02-26T01:18:39.977Z,5.18
2019-02-26T01:19:45.445Z,5.13
2019-02-26T01:20:39.950Z,5.15
2019-02-26T01:21:42.261Z,5.12
2019-02-26T01:22:45.322Z,5.07
2019-02-26T01:23:39.903Z,5.06
2019-02-26T01:24:39.891Z,5.06
2019-02-26T01:25:43.497Z,5.07
2019-02-26T01:26:42.505Z,5.06
2019-02-26T01:27:41.350Z,5.06
2019-02-26T01:28:44.040Z,5.06
2019-02-26T01:29:39.821Z,5.02
2019-02-26T01:30:41.050Z,4.99
2019-02-26T01:31:39.805Z,5
2019-02-26T01:32:39.782Z,4.92
2019-02-26T01:33:39.763Z,4.91
2019-02-26T01:34:42.665Z,4.91
2019-02-26T01:35:42.162Z,4.92
2019-02-26T01:36:42.616Z,4.96
2019-02-26T01:37:41.392Z,4.92
2019-02-26T01:38:48.662Z,4.91
2019-02-26T01:39:47.152Z,4.88
2019-02-26T01:40:45.998Z,4.86
2019-02-26T01:41:41.842Z,4.82
2019-02-26T01:42:39.634Z,4.8
2019-02-26T01:43:39.624Z,4.88
2019-02-26T01:44:44.582Z,4.8
2019-02-26T01:45:39.595Z,4.75
2019-02-26T01:46:43.523Z,4.73
2019-02-26T01:47:40.423Z,4.78
2019-02-26T01:48:43.647Z,4.8
2019-02-26T01:49:40.149Z,4.73
2019-02-26T01:50:43.097Z,4.73
2019-02-26T01:51:39.506Z,4.66
2019-02-26T01:52:39.492Z,4.78
2019-02-26T01:53:39.483Z,4.8
2019-02-26T01:54:42.045Z,4.77
2019-02-26T01:55:41.374Z,4.69
2019-02-26T01:56:41.757Z,4.59
2019-02-26T01:57:42.453Z,4.63
2019-02-26T01:58:39.408Z,4.66
2019-02-26T01:59:39.440Z,4.65
2019-02-26T02:00:41.278Z,4.63
2019-02-26T02:01:44.631Z,4.69
2019-02-26T02:02:39.350Z,4.63
2019-02-26T02:03:39.336Z,4.65
2019-02-26T02:04:45.367Z,4.65
2019-02-26T02:05:39.308Z,4.65
2019-02-26T02:06:43.319Z,4.62
2019-02-26T02:07:39.282Z,4.65
2019-02-26T02:08:45.774Z,4.62
2019-02-26T02:09:39.248Z,4.55
2019-02-26T02:10:39.243Z,4.63
2019-02-26T02:11:43.189Z,4.6
2019-02-26T02:12:43.883Z,4.58
2019-02-26T02:13:44.489Z,4.5
2019-02-26T02:14:39.184Z,4.58
2019-02-26T02:15:46.402Z,4.59
2019-02-26T02:16:39.148Z,4.52
2019-02-26T02:17:42.532Z,4.51
2019-02-26T02:18:43.608Z,4.5
2019-02-26T02:19:38.854Z,4.5
2019-02-26T02:20:39.090Z,4.45
2019-02-26T02:21:40.444Z,4.45
2019-02-26T02:22:44.481Z,4.48
2019-02-26T02:23:39.046Z,4.52
2019-02-26T02:24:48.479Z,4.47
2019-02-26T02:25:45.712Z,4.44
2019-02-26T02:26:41.056Z,4.36
2019-02-26T02:27:38.995Z,4.36
2019-02-26T02:28:40.435Z,4.41
2019-02-26T02:29:41.764Z,4.36
2019-02-26T02:30:41.566Z,4.33
2019-02-26T02:31:42.563Z,4.45
2019-02-26T02:32:39.353Z,4.44
2019-02-26T02:33:41.763Z,4.4
2019-02-26T02:34:45.424Z,4.42
2019-02-26T02:35:38.895Z,4.42
2019-02-26T02:36:38.857Z,4.41
2019-02-26T02:37:38.855Z,4.33
2019-02-26T02:38:41.389Z,4.3
2019-02-26T02:39:38.815Z,4.4
2019-02-26T02:40:43.145Z,4.36
2019-02-26T02:41:42.959Z,4.34
2019-02-26T02:42:43.573Z,4.29
2019-02-26T02:43:38.753Z,4.36
2019-02-26T02:44:39.490Z,4.32
2019-02-26T02:45:38.729Z,4.36
2019-02-26T02:46:44.452Z,4.34
2019-02-26T02:47:41.749Z,4.37
2019-02-26T02:48:38.682Z,4.36
2019-02-26T02:49:46.387Z,4.41
2019-02-26T02:50:38.656Z,4.36
2019-02-26T02:51:41.996Z,4.36
2019-02-26T02:52:42.094Z,4.4
2019-02-26T02:53:38.617Z,4.34
2019-02-26T02:54:41.748Z,4.42
2019-02-26T02:55:43.958Z,4.41
2019-02-26T02:56:44.399Z,4.36
2019-02-26T02:57:39.224Z,4.42
2019-02-26T02:58:41.815Z,4.41
2019-02-26T02:59:44.539Z,4.4
2019-02-26T03:00:39.306Z,4.36
2019-02-26T03:01:38.489Z,4.33
2019-02-26T03:02:46.360Z,4.41
2019-02-26T03:03:38.460Z,4.32
2019-02-26T03:04:39.589Z,4.33
2019-02-26T03:05:45.834Z,4.32
2019-02-26T03:06:42.727Z,4.23
2019-02-26T03:07:38.406Z,4.29
2019-02-26T03:08:39.414Z,4.27
2019-02-26T03:09:45.576Z,4.23
2019-02-26T03:10:45.011Z,4.24
2019-02-26T03:11:47.248Z,4.27
2019-02-26T03:12:38.331Z,4.29
2019-02-26T03:13:40.233Z,4.24
2019-02-26T03:14:44.453Z,4.32
2019-02-26T03:15:40.592Z,4.27
2019-02-26T03:16:39.812Z,4.29
2019-02-26T03:17:38.275Z,4.27
2019-02-26T03:18:38.243Z,4.24
2019-02-26T03:19:45.844Z,4.27
2019-02-26T03:20:44.484Z,4.26
2019-02-26T03:21:38.199Z,4.29
2019-02-26T03:22:46.552Z,4.24
2019-02-26T03:23:45.569Z,4.26
2019-02-26T03:24:40.415Z,4.36
2019-02-26T03:25:38.133Z,4.33
2019-02-26T03:26:38.130Z,4.4
2019-02-26T03:27:44.561Z,4.37
2019-02-26T03:28:45.232Z,4.37
2019-02-26T03:29:38.093Z,4.4
2019-02-26T03:30:46.906Z,4.48
2019-02-26T03:31:46.374Z,4.45
2019-02-26T03:32:45.882Z,4.52
2019-02-26T03:33:38.033Z,4.5
2019-02-26T03:34:38.023Z,4.51
2019-02-26T03:35:37.997Z,4.54
2019-02-26T03:36:45.086Z,4.52
2019-02-26T03:37:40.977Z,4.6
2019-02-26T03:38:37.970Z,4.6
2019-02-26T03:39:37.931Z,4.7
2019-02-26T03:40:40.849Z,4.63
2019-02-26T03:41:37.904Z,4.62
2019-02-26T03:42:44.113Z,4.73
2019-02-26T03:43:42.226Z,4.72
2019-02-26T03:44:37.862Z,4.7
2019-02-26T03:45:37.845Z,4.63
2019-02-26T03:46:37.833Z,4.78
2019-02-26T03:47:39.979Z,4.8
2019-02-26T03:48:37.799Z,4.78
2019-02-26T03:49:41.648Z,4.78
2019-02-26T03:50:37.769Z,4.88
2019-02-26T03:51:41.617Z,4.89
2019-02-26T03:52:37.747Z,4.89
2019-02-26T03:53:42.177Z,4.91
2019-02-26T03:54:40.196Z,4.94
2019-02-26T03:55:43.774Z,4.94
2019-02-26T03:56:37.681Z,4.94
2019-02-26T03:57:40.901Z,5.02
2019-02-26T03:58:37.662Z,5.04
2019-02-26T03:59:37.644Z,5.04
2019-02-26T04:00:46.735Z,5.04
2019-02-26T04:01:37.613Z,5.06
2019-02-26T04:02:43.036Z,5.1
2019-02-26T04:03:44.254Z,5.1
2019-02-26T04:04:38.522Z,5.04
2019-02-26T04:05:37.561Z,5.17
2019-02-26T04:06:44.805Z,5.13
2019-02-26T04:07:38.813Z,5.1
2019-02-26T04:08:37.547Z,5.09
2019-02-26T04:09:42.248Z,5.13
2019-02-26T04:10:37.489Z,5.24
2019-02-26T04:11:39.325Z,5.17
2019-02-26T04:12:44.983Z,5.21
2019-02-26T04:13:37.447Z,5.24
2019-02-26T04:14:37.458Z,5.25
2019-02-26T04:15:40.832Z,5.25
2019-02-26T04:16:43.564Z,5.25
2019-02-26T04:17:44.137Z,5.35
2019-02-26T04:18:39.617Z,5.3
2019-02-26T04:19:37.360Z,5.27
2019-02-26T04:20:37.349Z,5.25
2019-02-26T04:21:37.309Z,5.35
2019-02-26T04:22:40.093Z,5.39
2019-02-26T04:23:44.043Z,5.46
2019-02-26T04:24:40.783Z,5.53
2019-02-26T04:25:40.254Z,5.56
2019-02-26T04:26:39.930Z,5.46
2019-02-26T04:27:43.961Z,5.49
2019-02-26T04:28:42.956Z,5.57
2019-02-26T04:29:43.986Z,5.53
2019-02-26T04:30:44.468Z,5.51
2019-02-26T04:31:37.159Z,5.6
2019-02-26T04:32:41.346Z,5.54
2019-02-26T04:33:43.671Z,5.56
2019-02-26T04:34:36.877Z,5.6
2019-02-26T04:35:37.108Z,5.58
2019-02-26T04:36:44.123Z,5.58
2019-02-26T04:37:41.021Z,5.6
2019-02-26T04:38:37.058Z,5.64
2019-02-26T04:39:42.267Z,5.56
2019-02-26T04:40:41.284Z,5.64
2019-02-26T04:41:37.465Z,5.68
2019-02-26T04:42:43.575Z,5.6
2019-02-26T04:43:41.242Z,5.56
2019-02-26T04:44:39.102Z,5.57
2019-02-26T04:45:36.965Z,5.67
2019-02-26T04:46:41.994Z,5.56
2019-02-26T04:47:40.518Z,5.6
2019-02-26T04:48:39.025Z,5.68
2019-02-26T04:49:44.877Z,5.71
2019-02-26T04:50:44.505Z,5.68
2019-02-26T04:51:44.984Z,5.72
2019-02-26T04:52:43.579Z,5.74
2019-02-26T04:53:41.043Z,5.71
2019-02-26T04:54:42.041Z,5.76
2019-02-26T04:55:44.850Z,5.72
2019-02-26T04:56:45.091Z,5.89
2019-02-26T04:57:39.221Z,5.83
2019-02-26T04:58:42.448Z,5.82
2019-02-26T04:59:43.774Z,5.76
2019-02-26T05:00:41.120Z,5.82
2019-02-26T05:01:39.317Z,5.79
2019-02-26T05:02:36.732Z,5.83
2019-02-26T05:03:36.712Z,5.85
2019-02-26T05:04:42.267Z,5.83
2019-02-26T05:05:41.620Z,5.93
2019-02-26T05:06:36.670Z,5.93
2019-02-26T05:07:42.004Z,5.94
2019-02-26T05:08:42.909Z,5.97
2019-02-26T05:09:39.947Z,5.97
2019-02-26T05:10:39.013Z,5.99
2019-02-26T05:11:43.170Z,6
2019-02-26T05:12:42.583Z,5.99
2019-02-26T05:13:38.928Z,5.94
2019-02-26T05:14:36.585Z,6.01
2019-02-26T05:15:38.040Z,6.01
2019-02-26T05:16:42.785Z,6.01
2019-02-26T05:17:38.103Z,5.99
2019-02-26T05:18:39.213Z,6.04
2019-02-26T05:19:39.403Z,6.14
2019-02-26T05:20:42.744Z,6.08
2019-02-26T05:21:40.377Z,6.06
2019-02-26T05:22:38.217Z,5.99
2019-02-26T05:23:38.409Z,6.01
2019-02-26T05:24:37.902Z,5.99
2019-02-26T05:25:42.772Z,6.09
2019-02-26T05:26:36.414Z,6.04
2019-02-26T05:27:39.631Z,6.09
2019-02-26T05:28:46.248Z,6.06
2019-02-26T05:29:40.181Z,6.06
2019-02-26T05:30:37.723Z,6.18
2019-02-26T05:31:42.938Z,6.12
2019-02-26T05:32:39.741Z,6.12
2019-02-26T05:33:37.598Z,6.18
2019-02-26T05:34:37.363Z,6.12
2019-02-26T05:35:37.802Z,6.19
2019-02-26T05:36:46.068Z,6.27
2019-02-26T05:37:43.104Z,6.21
2019-02-26T05:38:40.109Z,6.17
2019-02-26T05:39:36.220Z,6.21
2019-02-26T05:40:42.606Z,6.19
2019-02-26T05:41:36.189Z,6.25
2019-02-26T05:42:36.193Z,6.31
2019-02-26T05:43:38.703Z,6.3
2019-02-26T05:44:36.151Z,6.21
2019-02-26T05:45:39.706Z,6.27
2019-02-26T05:46:36.120Z,6.28
2019-02-26T05:47:36.118Z,6.28
2019-02-26T05:48:37.148Z,6.25
2019-02-26T05:49:43.266Z,6.21
2019-02-26T05:50:44.650Z,6.25
2019-02-26T05:51:40.586Z,6.14
2019-02-26T05:52:38.140Z,6.12
2019-02-26T05:53:35.789Z,6.15
2019-02-26T05:54:36.020Z,6.22
2019-02-26T05:55:36.020Z,6.18
2019-02-26T05:56:38.363Z,6.12
2019-02-26T05:57:37.440Z,6.09
2019-02-26T05:58:43.691Z,6.08
2019-02-26T05:59:35.961Z,6.03
2019-02-26T06:00:38.122Z,6.08
2019-02-26T06:01:35.920Z,6.11
2019-02-26T06:02:37.142Z,6.08
2019-02-26T06:03:38.305Z,6.08
2019-02-26T06:04:40.932Z,6.14
2019-02-26T06:05:35.862Z,6.08
2019-02-26T06:06:35.982Z,5.97
2019-02-26T06:07:41.077Z,6.01
2019-02-26T06:08:41.233Z,5.94
2019-02-26T06:09:38.604Z,5.99
2019-02-26T06:10:37.391Z,5.94
2019-02-26T06:11:46.403Z,5.97
2019-02-26T06:12:43.306Z,6
2019-02-26T06:13:41.157Z,5.97
2019-02-26T06:14:41.564Z,6
2019-02-26T06:15:38.680Z,5.99
2019-02-26T06:16:36.328Z,5.97
2019-02-26T06:17:42.856Z,5.99
2019-02-26T06:18:35.692Z,5.99
2019-02-26T06:19:44.903Z,6.01
2019-02-26T06:20:39.108Z,6.08
2019-02-26T06:21:39.577Z,6.06
2019-02-26T06:22:37.050Z,6.08
2019-02-26T06:23:43.136Z,6.03
2019-02-26T06:24:40.458Z,6
2019-02-26T06:25:35.727Z,6.06
2019-02-26T06:26:43.107Z,5.96
2019-02-26T06:27:35.568Z,5.96
2019-02-26T06:28:43.515Z,5.97
2019-02-26T06:29:39.821Z,6.06
2019-02-26T06:30:35.523Z,5.97
2019-02-26T06:31:37.598Z,6.03
2019-02-26T06:32:44.415Z,5.97
2019-02-26T06:33:41.406Z,6.01
2019-02-26T06:34:35.476Z,6.04
2019-02-26T06:35:40.623Z,6.09
2019-02-26T06:36:35.443Z,6.09
2019-02-26T06:37:40.382Z,6.09
2019-02-26T06:38:37.956Z,6.08
2019-02-26T06:39:38.703Z,6.01
2019-02-26T06:40:42.630Z,6.14
2019-02-26T06:41:35.375Z,6.17
2019-02-26T06:42:40.421Z,6.25
2019-02-26T06:43:39.845Z,6.19
2019-02-26T06:44:36.828Z,6.25
2019-02-26T06:45:36.041Z,6.37
2019-02-26T06:46:40.746Z,6.49
2019-02-26T06:47:37.612Z,6.52
2019-02-26T06:48:37.089Z,6.62
2019-02-26T06:49:35.278Z,6.7
2019-02-26T06:50:41.503Z,6.73
2019-02-26T06:51:35.593Z,6.81
2019-02-26T06:52:44.692Z,6.84
2019-02-26T06:53:35.225Z,6.88
2019-02-26T06:54:36.615Z,6.89
2019-02-26T06:55:35.196Z,6.87
2019-02-26T06:56:46.114Z,6.91
2019-02-26T06:57:35.178Z,6.97
2019-02-26T06:58:35.714Z,6.95
2019-02-26T06:59:39.320Z,7.05
2019-02-26T07:00:35.130Z,6.98
2019-02-26T07:01:41.827Z,7.07
2019-02-26T07:02:35.105Z,7.09
2019-02-26T07:03:35.109Z,7.07
2019-02-26T07:04:35.081Z,7.07
2019-02-26T07:05:35.067Z,7.16
2019-02-26T07:06:38.056Z,7.27
2019-02-26T07:07:35.055Z,7.32
2019-02-26T07:08:35.797Z,7.46
2019-02-26T07:09:41.427Z,7.6
2019-02-26T07:10:36.494Z,7.46
2019-02-26T07:11:40.200Z,7.57
2019-02-26T07:12:34.981Z,7.71
2019-02-26T07:13:38.652Z,7.82
2019-02-26T07:14:38.850Z,7.86
2019-02-26T07:15:34.948Z,8.05
2019-02-26T07:16:34.935Z,8
2019-02-26T07:17:42.876Z,8.11
2019-02-26T07:18:34.911Z,8.11
2019-02-26T07:19:39.929Z,8.33
2019-02-26T07:20:46.615Z,8.37
2019-02-26T07:21:34.876Z,8.45
2019-02-26T07:22:34.863Z,8.48
2019-02-26T07:23:40.133Z,8.56
2019-02-26T07:24:34.840Z,8.55
2019-02-26T07:25:41.934Z,8.65
2019-02-26T07:26:36.623Z,8.74
2019-02-26T07:27:40.606Z,8.68
2019-02-26T07:28:34.792Z,8.76
2019-02-26T07:29:44.401Z,8.8
2019-02-26T07:30:37.411Z,8.94
2019-02-26T07:31:37.915Z,8.96
2019-02-26T07:32:35.985Z,9.01
2019-02-26T07:33:41.390Z,9.14
2019-02-26T07:34:34.729Z,9.18
2019-02-26T07:35:39.755Z,9.2
2019-02-26T07:36:34.698Z,9.28
2019-02-26T07:37:40.421Z,9.31
2019-02-26T07:38:44.562Z,9.38
2019-02-26T07:39:34.665Z,9.4
2019-02-26T07:40:40.355Z,9.47
2019-02-26T07:41:35.175Z,9.57
2019-02-26T07:42:41.435Z,9.56
2019-02-26T07:43:36.607Z,9.58
2019-02-26T07:44:34.612Z,9.58
2019-02-26T07:45:36.940Z,9.64
2019-02-26T07:46:38.371Z,9.64
2019-02-26T07:47:38.803Z,9.69
2019-02-26T07:48:36.581Z,9.68
2019-02-26T07:49:34.561Z,9.69
2019-02-26T07:50:43.930Z,9.69
2019-02-26T07:51:42.816Z,9.76
2019-02-26T07:52:37.449Z,9.87
2019-02-26T07:53:34.516Z,9.84
2019-02-26T07:54:34.509Z,9.9
2019-02-26T07:55:41.962Z,9.93
2019-02-26T07:56:37.330Z,10.17
2019-02-26T07:57:34.479Z,10.17
2019-02-26T07:58:40.748Z,10.18
2019-02-26T07:59:40.432Z,10.23
2019-02-26T08:00:42.306Z,10.32
2019-02-26T08:01:35.390Z,10.33
2019-02-26T08:02:39.146Z,10.29
2019-02-26T08:03:34.423Z,10.41
2019-02-26T08:04:41.624Z,10.33
2019-02-26T08:05:34.404Z,10.38
2019-02-26T08:06:38.961Z,10.36
2019-02-26T08:07:35.589Z,10.36
2019-02-26T08:08:34.377Z,10.27
2019-02-26T08:09:34.366Z,10.36
2019-02-26T08:10:40.011Z,10.47
2019-02-26T08:11:36.249Z,10.44
2019-02-26T08:12:40.911Z,10.53
2019-02-26T08:13:38.947Z,10.59
2019-02-26T08:14:34.318Z,10.61
2019-02-26T08:15:39.861Z,10.66
2019-02-26T08:16:34.837Z,10.76
2019-02-26T08:17:34.294Z,10.79
2019-02-26T08:18:34.285Z,10.85
2019-02-26T08:19:39.759Z,10.91
2019-02-26T08:20:40.347Z,10.88
2019-02-26T08:21:34.518Z,10.89
2019-02-26T08:22:38.646Z,10.99
2019-02-26T08:23:34.239Z,10.91
2019-02-26T08:24:34.227Z,10.86
2019-02-26T08:25:34.217Z,10.96
2019-02-26T08:26:34.213Z,10.94
2019-02-26T08:27:38.398Z,10.85
2019-02-26T08:28:36.461Z,10.91
2019-02-26T08:29:38.560Z,10.82
2019-02-26T08:30:34.175Z,10.84
2019-02-26T08:31:34.165Z,10.79
2019-02-26T08:32:35.283Z,10.82
2019-02-26T08:33:34.146Z,10.73
2019-02-26T08:34:34.144Z,10.7
2019-02-26T08:35:34.136Z,10.66
2019-02-26T08:36:34.117Z,10.71
2019-02-26T08:37:34.107Z,10.68
2019-02-26T08:38:35.006Z,10.74
2019-02-26T08:39:35.629Z,10.82
2019-02-26T08:40:34.092Z,10.88
2019-02-26T08:41:34.075Z,10.89
2019-02-26T08:42:34.069Z,10.88
2019-02-26T08:43:34.058Z,10.88
2019-02-26T08:44:34.047Z,10.89
2019-02-26T08:45:35.857Z,10.89
2019-02-26T08:46:34.028Z,10.92
2019-02-26T08:47:34.021Z,10.89
2019-02-26T08:48:34.012Z,10.92
2019-02-26T08:49:35.237Z,11
2019-02-26T08:50:41.358Z,11.07
2019-02-26T08:51:33.985Z,11.1
2019-02-26T08:52:34.236Z,11.1
2019-02-26T08:53:36.239Z,11.18
2019-02-26T08:54:38.255Z,11.32
2019-02-26T08:55:33.702Z,11.27
2019-02-26T08:56:41.039Z,11.33
2019-02-26T08:57:33.999Z,11.29
2019-02-26T08:58:33.917Z,11.42
2019-02-26T08:59:33.910Z,11.39
2019-02-26T09:00:34.351Z,11.51
2019-02-26T09:01:33.901Z,11.54
2019-02-26T09:02:33.881Z,11.76
2019-02-26T09:03:43.056Z,11.86
2019-02-26T09:04:35.117Z,11.95
2019-02-26T09:05:39.246Z,12.09
2019-02-26T09:06:33.844Z,12.21
2019-02-26T09:07:33.839Z,12.38
2019-02-26T09:08:40.551Z,12.42
2019-02-26T09:09:35.756Z,12.54
2019-02-26T09:10:33.818Z,12.62
2019-02-26T09:11:39.295Z,12.59
2019-02-26T09:12:33.798Z,12.65
2019-02-26T09:13:39.201Z,12.71
2019-02-26T09:14:40.286Z,12.78
2019-02-26T09:15:40.696Z,12.77
2019-02-26T09:16:35.579Z,12.87
2019-02-26T09:17:40.382Z,12.85
2019-02-26T09:18:40.602Z,12.87
2019-02-26T09:19:38.193Z,12.9
2019-02-26T09:20:33.739Z,13.03
2019-02-26T09:21:34.619Z,13.08
2019-02-26T09:22:33.720Z,13.1
2019-02-26T09:23:35.748Z,13.15
2019-02-26T09:24:33.708Z,13.17
2019-02-26T09:25:36.448Z,13.25
2019-02-26T09:27:42.883Z,13.2
2019-02-26T09:28:34.991Z,13.32
2019-02-26T09:29:34.661Z,13.33
2019-02-26T09:30:40.863Z,13.46
2019-02-26T09:31:33.653Z,13.54
2019-02-26T09:32:37.840Z,13.52
2019-02-26T09:33:42.703Z,13.54
2019-02-26T09:34:39.862Z,13.66
2019-02-26T09:35:36.054Z,13.7
2019-02-26T09:36:55.520Z,13.73
2019-02-26T09:37:33.607Z,13.78
2019-02-26T09:38:33.599Z,13.77
2019-02-26T09:39:39.046Z,13.88
2019-02-26T09:40:37.285Z,13.95
2019-02-26T09:41:37.734Z,13.88
2019-02-26T09:42:35.269Z,13.97
2019-02-26T09:43:33.567Z,14.04
2019-02-26T09:44:38.256Z,14.09
2019-02-26T09:45:34.955Z,14.15
2019-02-26T09:46:39.365Z,14.15
2019-02-26T09:47:36.301Z,14.22
2019-02-26T09:48:34.048Z,14.21
2019-02-26T09:49:38.191Z,14.18
2019-02-26T09:50:33.771Z,14.2
2019-02-26T09:51:39.925Z,14.24
2019-02-26T09:52:36.843Z,14.32
2019-02-26T09:53:33.490Z,14.29
2019-02-26T09:54:37.580Z,14.27
2019-02-26T09:55:33.479Z,14.33
2019-02-26T09:56:33.472Z,14.47
2019-02-26T09:57:33.463Z,14.45
2019-02-26T09:58:33.454Z,14.45
2019-02-26T09:59:38.487Z,14.45
2019-02-26T10:00:34.390Z,14.55
2019-02-26T10:01:38.536Z,14.37
2019-02-26T10:02:33.663Z,14.39
2019-02-26T10:03:41.415Z,14.57
2019-02-26T10:04:34.307Z,14.52
2019-02-26T10:05:33.408Z,14.5
2019-02-26T10:06:34.895Z,14.51
2019-02-26T10:07:39.199Z,14.55
2019-02-26T10:08:35.341Z,14.54
2019-02-26T10:09:38.076Z,14.51
2019-02-26T10:10:41.899Z,14.47
2019-02-26T10:11:33.374Z,14.54
2019-02-26T10:12:37.401Z,14.51
2019-02-26T10:13:33.354Z,14.5
2019-02-26T10:14:38.496Z,14.62
2019-02-26T10:15:37.286Z,14.51
2019-02-26T10:16:35.930Z,14.54
2019-02-26T10:17:38.005Z,14.68
2019-02-26T10:18:35.628Z,14.69
2019-02-26T10:19:38.171Z,14.7
2019-02-26T10:20:36.481Z,14.68
2019-02-26T10:21:37.438Z,14.65
2019-02-26T10:22:40.514Z,14.64
2019-02-26T10:23:37.375Z,14.8
2019-02-26T10:24:40.286Z,14.84
2019-02-26T10:25:39.849Z,14.89
2019-02-26T10:26:39.354Z,15.09
2019-02-26T10:27:43.049Z,15.27
2019-02-26T10:28:39.594Z,15.38
2019-02-26T10:29:36.806Z,15.41
2019-02-26T10:30:41.789Z,15.39
2019-02-26T10:31:33.239Z,15.5
2019-02-26T10:32:35.266Z,15.5
2019-02-26T10:33:38.006Z,15.53
2019-02-26T10:34:35.109Z,15.6
2019-02-26T10:35:42.682Z,15.5
2019-02-26T10:36:45.951Z,15.56
2019-02-26T10:37:39.126Z,15.46
2019-02-26T10:38:38.551Z,15.5
2019-02-26T10:39:34.606Z,15.47
2019-02-26T10:40:57.195Z,15.41
2019-02-26T10:41:34.748Z,15.38
2019-02-26T10:42:42.203Z,15.53
2019-02-26T10:43:33.178Z,15.67
2019-02-26T10:44:33.196Z,15.67
2019-02-26T10:45:35.952Z,15.64
2019-02-26T10:46:39.417Z,15.54
2019-02-26T10:47:37.091Z,15.41
2019-02-26T10:48:33.182Z,15.39
2019-02-26T10:49:33.553Z,15.49
2019-02-26T10:50:42.497Z,15.46
2019-02-26T10:51:33.125Z,15.44
2019-02-26T10:52:33.329Z,15.57
2019-02-26T10:53:33.120Z,15.56
2019-02-26T10:54:43.489Z,15.6
2019-02-26T10:55:44.284Z,15.65
2019-02-26T10:56:42.480Z,15.69
2019-02-26T10:57:36.627Z,15.71
2019-02-26T10:58:33.094Z,15.76
2019-02-26T10:59:33.086Z,15.78
2019-02-26T11:00:40.228Z,15.76
2019-02-26T11:01:35.948Z,15.87
2019-02-26T11:02:33.082Z,15.8
2019-02-26T11:03:40.941Z,15.92
2019-02-26T11:04:44.516Z,15.97
2019-02-26T11:05:33.067Z,16.01
2019-02-26T11:06:41.224Z,16
2019-02-26T11:07:40.041Z,16
2019-02-26T11:08:37.378Z,16.08
2019-02-26T11:09:36.526Z,16.02
2019-02-26T11:10:33.071Z,16.02
2019-02-26T11:11:39.482Z,16.07
2019-02-26T11:12:38.553Z,16.04
2019-02-26T11:13:33.005Z,16.08
2019-02-26T11:14:37.214Z,16.12
2019-02-26T11:15:38.479Z,16.21
2019-02-26T11:16:39.215Z,16.17
2019-02-26T11:17:35.856Z,16.21
2019-02-26T11:18:34.696Z,16.31
2019-02-26T11:19:42.134Z,16.35
2019-02-26T11:20:36.723Z,16.3
2019-02-26T11:21:33.000Z,16.39
2019-02-26T11:22:32.958Z,16.38
2019-02-26T11:23:39.318Z,16.45
2019-02-26T11:24:38.437Z,16.57
2019-02-26T11:25:32.958Z,16.57
2019-02-26T11:26:38.170Z,16.56
2019-02-26T11:27:35.211Z,16.66
2019-02-26T11:28:42.830Z,16.67
2019-02-26T11:29:40.308Z,16.7
2019-02-26T11:30:36.683Z,16.7
2019-02-26T11:31:32.912Z,16.79
2019-02-26T11:32:40.327Z,16.82
2019-02-26T11:33:33.037Z,16.78
2019-02-26T11:34:39.874Z,16.81
2019-02-26T11:35:32.994Z,16.88
2019-02-26T11:36:40.940Z,16.86
2019-02-26T11:37:34.884Z,16.89
2019-02-26T11:38:34.504Z,16.89
2019-02-26T11:39:32.888Z,16.91
2019-02-26T11:40:35.431Z,16.98
2019-02-26T11:41:38.175Z,16.86
2019-02-26T11:42:33.500Z,16.96
2019-02-26T11:43:33.719Z,16.93
2019-02-26T11:44:32.863Z,16.91
2019-02-26T11:45:37.075Z,16.81
2019-02-26T11:46:36.842Z,16.76
2019-02-26T11:47:39.001Z,16.57
2019-02-26T11:48:35.701Z,16.58
2019-02-26T11:49:34.807Z,16.52
2019-02-26T11:50:33.276Z,16.57
2019-02-26T11:51:44.333Z,16.61
2019-02-26T11:52:33.743Z,16.68
2019-02-26T11:53:35.004Z,16.67
2019-02-26T11:54:40.259Z,16.66
2019-02-26T11:55:39.654Z,16.67
2019-02-26T11:56:32.804Z,16.78
2019-02-26T11:57:43.089Z,16.63
2019-02-26T11:58:32.785Z,16.67
2019-02-26T11:59:37.723Z,16.7
2019-02-26T12:00:42.685Z,16.71
2019-02-26T12:01:37.402Z,16.78
2019-02-26T12:02:43.513Z,16.7
2019-02-26T12:03:41.675Z,16.71
2019-02-26T12:04:32.776Z,16.71
2019-02-26T12:05:41.730Z,16.63
2019-02-26T12:06:32.758Z,16.5
2019-02-26T12:07:37.154Z,16.45
2019-02-26T12:08:32.742Z,16.34
2019-02-26T12:09:40.673Z,16.34
2019-02-26T12:10:40.572Z,16.39
2019-02-26T12:11:32.722Z,16.43
2019-02-26T12:12:36.996Z,16.45
2019-02-26T12:13:32.718Z,16.38
2019-02-26T12:14:34.602Z,16.31
2019-02-26T12:15:41.574Z,16.34
2019-02-26T12:16:33.322Z,16.39
2019-02-26T12:17:32.695Z,16.34
2019-02-26T12:18:34.169Z,16.38
2019-02-26T12:19:37.311Z,16.33
2019-02-26T12:20:32.683Z,16.34
2019-02-26T12:22:52.320Z,16.34
2019-02-26T12:23:49.204Z,16.28
2019-02-26T12:24:47.743Z,16.28
2019-02-26T12:25:47.084Z,16.24
2019-02-26T12:26:51.891Z,16.21
2019-02-26T12:27:50.559Z,16.12
2019-02-26T12:28:46.475Z,16.14
2019-02-26T12:29:52.198Z,16.15
2019-02-26T12:30:49.204Z,16.25
2019-02-26T12:31:45.729Z,16.28
2019-02-26T12:32:50.503Z,16.21
2019-02-26T12:33:45.717Z,16.28
2019-02-26T12:34:51.403Z,16.34
2019-02-26T12:35:48.388Z,16.34
2019-02-26T12:36:48.030Z,16.35
2019-02-26T12:37:47.169Z,16.41
2019-02-26T12:38:48.054Z,16.42
2019-02-26T12:39:52.170Z,16.35
2019-02-26T12:42:48.614Z,16.23
2019-02-26T12:42:58.436Z,16.21
2019-02-26T12:44:04.486Z,16.3
2019-02-26T12:45:03.374Z,16.21
2019-02-26T12:46:04.657Z,16.17
2019-02-26T12:47:02.916Z,16.25
2019-02-26T12:48:00.042Z,16.21
2019-02-26T12:48:58.398Z,16.23
2019-02-26T12:50:01.640Z,16.24
2019-02-26T12:51:05.252Z,16.24
2019-02-26T12:52:03.494Z,16.27
2019-02-26T12:52:59.691Z,16.39
2019-02-26T12:53:58.373Z,16.38
2019-02-26T12:55:04.114Z,16.38
2019-02-26T12:56:06.833Z,16.34
2019-02-26T12:57:05.997Z,16.31
2019-02-26T12:58:02.043Z,16.28
2019-02-26T12:58:59.405Z,16.31
2019-02-26T12:59:58.343Z,16.39
2019-02-26T13:00:58.349Z,16.41
2019-02-26T13:01:58.334Z,16.46
2019-02-26T13:02:58.364Z,16.43
2019-02-26T13:03:59.809Z,16.48
2019-02-26T13:04:58.318Z,16.52
2019-02-26T13:05:58.313Z,16.52
2019-02-26T13:06:58.308Z,16.52
2019-02-26T13:07:58.328Z,16.6
2019-02-26T13:08:58.293Z,16.49
2019-02-26T13:10:06.359Z,16.66
2019-02-26T13:13:08.931Z,16.58
2019-02-26T13:13:18.848Z,16.58
2019-02-26T13:14:18.828Z,16.57
2019-02-26T13:15:23.881Z,16.48
2019-02-26T13:16:18.818Z,16.43